Alton, VA

8:29 AM EDT on April 25, 2015 (GMT -0400)
Union Community Near South Boston, Va | | Change Station
CLOSE
Current Station
Personal Weather Station
Location: South Boston, VA
Elevation: 440 ft
Nearby Weather Stations

Elev 440 ft 36.70 °N, 79.00 °W | Updated 9 minutes ago

Overcast
Overcast
49.5 °F
Feels Like 50 °F
N
0.0
Wind Variable Wind from North
Gusts 0.0 mph

Today
High -- | Low -- °F
--% Chance of Precip.
Yesterday
High -- | Low -- °F
Precip. -- in
6:28 AM 7:58 PM
Waxing Crescent, 45% visible
Pressure 29.94 in
Visibility 10.0 miles
Clouds Overcast 8000 ft
Windchill 50 °F
Dew Point 42 °F
Humidity 76%
Rainfall 0.00 in
Snow Depth Not available.
UV 0 out of 12
Pollen 9.60 out of 12
Air Quality Not available.
Flu Activity Sporadic
METAR KDAN 251153Z AUTO 04006KT 10SM OVC080 11/01 A2995 RMK AO2 PRESRR SLP136 T01060011 10106 20072 53012

More Conditions Fewer Conditions

Pressure 29.94 in
Visibility 10.0 miles
Clouds Overcast 8000 ft
Windchill 50 °F
Dew Point 42 °F
Humidity 76%
Rainfall 0.00 in
Snow Depth Not available.
UV 0 out of 12
Pollen 9.60 out of 12
Air Quality Not available.
Flu Activity Sporadic
METAR KDAN 251153Z AUTO 04006KT 10SM OVC080 11/01 A2995 RMK AO2 PRESRR SLP136 T01060011 10106 20072 53012

More Conditions Fewer Conditions

10-Day Weather Forecast

Almanac

Astronomy

Apr. 25, 2015 Rise Set
Actual Time
Civil Twilight
Nautical Twilight
Astronomical Twilight
Moon
Length of Visible Light
Length of Day
Tomorrow will be .
, % of the Moon is Illuminated

Today's Extremes

State Highs State Lows

Community

WunderPhotos

Upload Photos

1,816,645 photos uploaded!

WunderBlogs® & News

Nearby

Air Quality

  Air Quality AQ Index Pollutant
Not available.

Snow Depth

Station Depth Elevation

Earthquake Activity

City Distance Mag. Time & Date
Minimum magnitude displayed is 2.5.

Coastal Water Temperatures

Place Temperature

Stations

Nearby Weather Stations

Station Location Temp. Windchill Dew Point Humidity Wind Precip. Elev Updated Type